createdAt,value
2018-12-30T00:02:28.761Z,97043.00
2018-12-30T00:07:32.823Z,97022.00
2018-12-30T00:12:36.280Z,97026.00
2018-12-30T00:17:41.018Z,97033.00
2018-12-30T00:22:46.867Z,97042.00
2018-12-30T00:27:49.742Z,97033.00
2018-12-30T00:32:53.380Z,97031.00
2018-12-30T00:37:56.776Z,97039.00
2018-12-30T00:42:59.744Z,97033.00
2018-12-30T00:48:02.602Z,97018.00
2018-12-30T00:53:07.574Z,97041.00
2018-12-30T00:58:11.348Z,97042.00
2018-12-30T01:03:15.313Z,97038.00
2018-12-30T01:08:18.765Z,97024.00
2018-12-30T01:13:22.358Z,97062.00
2018-12-30T01:18:25.221Z,97021.00
2018-12-30T01:23:28.827Z,97033.00
2018-12-30T01:28:42.847Z,97029.00
2018-12-30T01:33:47.218Z,97027.00
2018-12-30T01:38:50.127Z,97017.00
2018-12-30T01:43:53.812Z,97028.00
2018-12-30T01:48:57.280Z,97027.00
2018-12-30T01:54:00.313Z,97021.00
2018-12-30T01:59:04.502Z,97029.00
2018-12-30T02:04:09.608Z,97013.00
2018-12-30T02:09:13.413Z,97022.00
2018-12-30T02:14:16.878Z,97037.00
2018-12-30T02:19:21.527Z,97049.00
2018-12-30T02:24:26.760Z,97041.00
2018-12-30T02:29:33.460Z,97062.00
2018-12-30T02:34:36.256Z,97054.00
2018-12-30T02:39:42.356Z,97051.00
2018-12-30T02:44:45.209Z,97055.00
2018-12-30T02:49:48.017Z,97059.00
2018-12-30T02:54:51.336Z,97057.00
2018-12-30T02:59:54.516Z,96682.00
2018-12-30T03:04:57.419Z,97046.00
2018-12-30T03:10:03.543Z,97043.00
2018-12-30T03:15:08.347Z,97045.00
2018-12-30T03:20:11.182Z,97025.00
2018-12-30T03:25:14.040Z,97042.00
2018-12-30T03:30:17.952Z,97025.00
2018-12-30T03:35:21.405Z,97038.00
2018-12-30T03:40:24.190Z,97028.00
2018-12-30T03:45:27.119Z,97026.00
2018-12-30T03:50:30.928Z,97026.00
2018-12-30T03:55:34.138Z,96985.00
2018-12-30T04:00:37.018Z,97023.00
2018-12-30T04:05:39.876Z,97010.00
2018-12-30T04:10:43.586Z,97018.00
2018-12-30T04:15:51.365Z,97042.00
2018-12-30T04:20:54.952Z,97042.00
2018-12-30T04:25:57.755Z,97040.00
2018-12-30T04:31:01.493Z,97047.00
2018-12-30T04:36:05.353Z,97038.00
2018-12-30T04:41:08.908Z,97054.00
2018-12-30T04:46:13.450Z,97054.00
2018-12-30T04:51:16.253Z,97066.00
2018-12-30T04:56:22.571Z,97054.00
2018-12-30T05:29:42.991Z,97079.00
2018-12-30T05:34:46.643Z,97081.00
2018-12-30T05:39:51.304Z,97070.00
2018-12-30T05:45:12.287Z,97058.00
2018-12-30T05:50:18.431Z,97080.00
2018-12-30T05:55:22.887Z,97091.00
2018-12-30T06:00:28.691Z,97094.00
2018-12-30T06:05:33.259Z,97081.00
2018-12-30T06:10:37.923Z,97096.00
2018-12-30T06:15:42.355Z,97095.00
2018-12-30T06:20:46.347Z,97107.00
2018-12-30T06:25:52.183Z,97098.00
2018-12-30T06:30:57.958Z,97112.00
2018-12-30T06:36:01.447Z,97134.00
2018-12-30T06:41:04.687Z,97154.00
2018-12-30T06:46:08.413Z,97161.00
2018-12-30T06:51:15.094Z,97168.00
2018-12-30T06:56:18.346Z,97164.00
2018-12-30T07:01:21.112Z,97187.00
2018-12-30T07:06:25.431Z,97191.00
2018-12-30T07:11:28.402Z,97197.00
2018-12-30T07:16:31.275Z,97198.00
2018-12-30T07:21:34.288Z,97204.00
2018-12-30T07:26:36.993Z,97216.00
2018-12-30T07:31:41.576Z,97235.00
2018-12-30T07:36:45.364Z,97232.00
2018-12-30T07:41:49.896Z,97238.00
2018-12-30T07:46:53.588Z,97247.00
2018-12-30T07:51:56.999Z,97260.00
2018-12-30T07:57:00.435Z,97269.00
2018-12-30T08:02:03.183Z,97284.00
2018-12-30T08:07:07.023Z,97272.00
2018-12-30T08:12:10.506Z,97289.00
2018-12-30T08:17:14.608Z,97286.00
2018-12-30T08:22:18.751Z,97285.00
2018-12-30T08:27:21.869Z,97296.00
2018-12-30T08:32:27.035Z,97320.00
2018-12-30T08:37:32.772Z,97319.00
2018-12-30T08:42:35.932Z,97313.00
2018-12-30T08:47:39.712Z,97328.00
2018-12-30T08:52:42.898Z,97336.00
2018-12-30T08:57:49.387Z,97348.00
2018-12-30T09:02:54.344Z,97361.00
2018-12-30T09:08:00.445Z,97368.00
2018-12-30T09:13:04.439Z,97398.00
2018-12-30T09:18:08.421Z,97400.00
2018-12-30T09:23:12.412Z,97415.00
2018-12-30T09:28:19.614Z,97425.00
2018-12-30T09:33:23.780Z,97444.00
2018-12-30T09:38:31.180Z,97435.00
2018-12-30T09:43:36.075Z,97436.00
2018-12-30T09:48:42.143Z,97449.00
2018-12-30T09:53:45.600Z,97443.00
2018-12-30T09:58:48.671Z,97457.00
2018-12-30T10:03:51.541Z,97467.00
2018-12-30T10:08:55.730Z,97466.00
2018-12-30T10:14:01.476Z,97463.00
2018-12-30T10:19:14.542Z,97467.00
2018-12-30T10:24:18.768Z,97481.00
2018-12-30T10:29:21.700Z,97477.00
2018-12-30T10:34:26.156Z,97480.00
2018-12-30T10:39:29.288Z,97497.00
2018-12-30T10:44:33.386Z,97495.00
2018-12-30T10:49:37.482Z,97511.00
2018-12-30T10:54:40.415Z,97500.00
2018-12-30T10:59:44.556Z,97510.00
2018-12-30T11:04:49.103Z,97498.00
2018-12-30T11:09:52.107Z,97505.00
2018-12-30T11:14:54.962Z,97517.00
2018-12-30T11:20:00.867Z,97518.00
2018-12-30T11:25:05.279Z,97518.00
2018-12-30T11:30:08.979Z,97513.00
2018-12-30T11:35:20.072Z,97503.00
2018-12-30T11:40:23.840Z,97501.00
2018-12-30T11:45:30.312Z,97493.00
2018-12-30T11:50:33.204Z,97490.00
2018-12-30T11:55:36.135Z,97510.00
2018-12-30T12:00:39.737Z,97512.00
2018-12-30T12:05:44.344Z,97516.00
2018-12-30T12:10:48.711Z,97515.00
2018-12-30T12:15:52.757Z,97515.00
2018-12-30T12:20:57.628Z,97515.00
2018-12-30T12:26:01.815Z,97518.00
2018-12-30T12:31:14.171Z,97527.00
2018-12-30T12:36:18.746Z,97523.00
2018-12-30T12:41:22.334Z,97514.00
2018-12-30T12:46:26.809Z,97533.00
2018-12-30T12:51:30.659Z,97527.00
2018-12-30T12:56:38.679Z,97539.00
2018-12-30T13:01:43.947Z,97538.00
2018-12-30T13:06:48.603Z,97538.00
2018-12-30T13:11:52.798Z,97547.00
2018-12-30T13:16:56.496Z,97558.00
2018-12-30T13:21:59.724Z,97565.00
2018-12-30T13:27:05.948Z,97564.00
2018-12-30T13:32:10.867Z,97563.00
2018-12-30T13:37:18.711Z,97580.00
2018-12-30T13:42:23.533Z,97587.00
2018-12-30T13:47:26.527Z,97597.00
2018-12-30T13:52:30.267Z,97591.00
2018-12-30T13:57:33.853Z,97590.00
2018-12-30T14:02:38.804Z,97592.00
2018-12-30T14:07:47.912Z,97582.00
2018-12-30T14:12:51.480Z,97578.00
2018-12-30T14:17:58.607Z,97571.00
2018-12-30T14:23:02.458Z,97588.00
2018-12-30T14:28:07.206Z,97586.00
2018-12-30T14:33:15.921Z,97601.00
2018-12-30T14:38:20.591Z,97600.00
2018-12-30T14:43:24.552Z,97605.00
2018-12-30T14:48:28.570Z,97615.00
2018-12-30T14:53:32.035Z,97623.00
2018-12-30T14:58:35.732Z,97623.00
2018-12-30T15:03:40.225Z,97624.00
2018-12-30T15:08:44.364Z,97635.00
2018-12-30T15:13:47.458Z,97650.00
2018-12-30T15:18:51.343Z,97637.00
2018-12-30T15:23:54.673Z,97638.00
2018-12-30T15:28:57.962Z,97641.00
2018-12-30T15:34:00.932Z,97641.00
2018-12-30T15:39:07.314Z,97639.00
2018-12-30T15:44:10.598Z,97656.00
2018-12-30T15:49:14.531Z,97651.00
2018-12-30T15:54:28.846Z,97651.00
2018-12-30T15:59:33.973Z,97664.00
2018-12-30T16:04:38.973Z,97655.00
2018-12-30T16:09:44.705Z,97648.00
2018-12-30T16:14:47.965Z,97663.00
2018-12-30T16:19:51.998Z,97673.00
2018-12-30T16:24:55.107Z,97650.00
2018-12-30T16:29:58.442Z,97661.00
2018-12-30T16:35:01.865Z,97666.00
2018-12-30T16:40:06.514Z,97654.00
2018-12-30T16:45:12.746Z,97653.00
2018-12-30T16:50:17.064Z,97650.00
2018-12-30T16:55:19.913Z,97647.00
2018-12-30T17:00:23.343Z,97661.00
2018-12-30T17:05:26.514Z,97654.00
2018-12-30T17:10:30.687Z,97642.00
2018-12-30T17:15:33.531Z,97652.00
2018-12-30T17:20:36.580Z,97643.00
2018-12-30T17:25:42.937Z,97638.00
2018-12-30T17:30:45.410Z,97664.00
2018-12-30T17:35:48.537Z,97663.00
2018-12-30T17:41:01.351Z,97667.00
2018-12-30T17:45:58.821Z,97679.00
2018-12-30T17:51:03.271Z,97675.00
2018-12-30T17:56:07.334Z,97680.00
2018-12-30T18:01:10.523Z,97692.00
2018-12-30T18:06:13.392Z,97691.00
2018-12-30T18:11:16.150Z,97688.00
2018-12-30T18:16:19.043Z,97674.00
2018-12-30T18:21:22.707Z,97677.00
2018-12-30T18:26:26.352Z,97682.00
2018-12-30T18:31:33.385Z,97687.00
2018-12-30T18:36:41.510Z,97705.00
2018-12-30T18:41:44.389Z,97695.00
2018-12-30T18:46:48.052Z,97681.00
2018-12-30T18:51:52.240Z,97678.00
2018-12-30T18:56:55.818Z,97697.00
2018-12-30T19:02:02.227Z,97710.00
2018-12-30T19:07:06.119Z,97697.00
2018-12-30T19:12:09.892Z,97693.00
2018-12-30T19:17:13.624Z,97687.00
2018-12-30T19:22:18.785Z,97690.00
2018-12-30T19:27:23.284Z,97701.00
2018-12-30T19:32:28.877Z,97696.00
2018-12-30T19:37:33.782Z,97709.00
2018-12-30T19:42:38.230Z,97697.00
2018-12-30T19:47:42.100Z,97693.00
2018-12-30T19:52:47.342Z,97683.00
2018-12-30T19:57:53.489Z,97677.00
2018-12-30T20:02:57.805Z,97697.00
2018-12-30T20:08:02.957Z,97682.00
2018-12-30T20:13:09.111Z,97681.00
2018-12-30T20:18:13.908Z,97685.00
2018-12-30T20:23:17.748Z,97683.00
2018-12-30T20:28:21.323Z,97687.00
2018-12-30T20:33:27.264Z,97689.00
2018-12-30T20:38:31.507Z,97684.00
2018-12-30T20:43:35.037Z,97682.00
2018-12-30T20:48:40.291Z,97669.00
2018-12-30T20:53:47.676Z,97665.00
2018-12-30T20:58:58.950Z,97667.00
2018-12-30T21:04:08.188Z,97676.00
2018-12-30T21:09:11.617Z,97673.00
2018-12-30T21:14:15.136Z,97665.00
2018-12-30T21:19:18.688Z,97668.00
2018-12-30T21:24:22.043Z,97666.00
2018-12-30T21:29:26.944Z,97670.00
2018-12-30T21:34:31.735Z,97662.00
2018-12-30T21:39:35.408Z,97658.00
2018-12-30T21:44:40.829Z,97658.00
2018-12-30T21:49:43.684Z,97660.00
2018-12-30T21:54:51.740Z,97661.00
2018-12-30T21:59:59.505Z,97667.00
2018-12-30T22:05:10.524Z,97667.00
2018-12-30T22:10:17.611Z,97673.00
2018-12-30T22:15:24.996Z,97680.00
2018-12-30T22:20:28.429Z,97696.00
2018-12-30T22:25:31.647Z,97672.00
2018-12-30T22:30:39.386Z,97672.00
2018-12-30T22:35:43.503Z,97677.00
2018-12-30T22:40:51.044Z,97673.00
2018-12-30T22:45:55.572Z,97666.00
2018-12-30T22:51:00.123Z,97646.00
2018-12-30T22:56:05.435Z,97638.00
2018-12-30T23:01:15.892Z,97640.00
2018-12-30T23:06:20.456Z,97645.00
2018-12-30T23:11:24.437Z,97630.00
2018-12-30T23:16:29.020Z,97640.00
2018-12-30T23:21:32.461Z,97646.00
2018-12-30T23:26:36.001Z,97636.00
2018-12-30T23:31:49.446Z,97635.00
2018-12-30T23:36:55.299Z,97640.00
2018-12-30T23:41:58.935Z,97647.00
2018-12-30T23:47:03.325Z,97651.00
2018-12-30T23:52:11.380Z,97645.00
2018-12-30T23:57:15.957Z,97653.00
